sensor_id;sensor_type;location;lat;lon;timestamp;P1;durP1;ratioP1;P2;durP2;ratioP2
33696;SDS011;20031;43.416;23.232;2022-10-22T00:02:24;22.77;;;11.57;;
33696;SDS011;20031;43.416;23.232;2022-10-22T00:04:51;25.13;;;12.80;;
33696;SDS011;20031;43.416;23.232;2022-10-22T00:07:18;26.08;;;11.45;;
33696;SDS011;20031;43.416;23.232;2022-10-22T00:09:44;20.30;;;10.07;;
33696;SDS011;20031;43.416;23.232;2022-10-22T00:12:11;17.63;;;9.65;;
33696;SDS011;20031;43.416;23.232;2022-10-22T00:14:37;19.45;;;9.40;;
33696;SDS011;20031;43.416;23.232;2022-10-22T00:17:03;19.63;;;9.07;;
33696;SDS011;20031;43.416;23.232;2022-10-22T00:19:29;19.92;;;7.93;;
33696;SDS011;20031;43.416;23.232;2022-10-22T00:21:54;17.15;;;8.63;;
33696;SDS011;20031;43.416;23.232;2022-10-22T00:24:20;14.00;;;8.60;;
33696;SDS011;20031;43.416;23.232;2022-10-22T00:26:45;19.52;;;8.85;;
33696;SDS011;20031;43.416;23.232;2022-10-22T00:29:12;19.88;;;8.82;;
33696;SDS011;20031;43.416;23.232;2022-10-22T00:31:37;18.85;;;8.60;;
33696;SDS011;20031;43.416;23.232;2022-10-22T00:34:02;19.50;;;8.35;;
33696;SDS011;20031;43.416;23.232;2022-10-22T00:36:28;18.65;;;8.68;;
33696;SDS011;20031;43.416;23.232;2022-10-22T00:38:53;16.73;;;9.15;;
33696;SDS011;20031;43.416;23.232;2022-10-22T00:41:19;17.30;;;8.05;;
33696;SDS011;20031;43.416;23.232;2022-10-22T00:43:58;12.70;;;7.57;;
33696;SDS011;20031;43.416;23.232;2022-10-22T00:46:26;16.60;;;7.95;;
33696;SDS011;20031;43.416;23.232;2022-10-22T00:48:52;20.25;;;8.30;;
33696;SDS011;20031;43.416;23.232;2022-10-22T00:51:20;16.48;;;8.25;;
33696;SDS011;20031;43.416;23.232;2022-10-22T00:53:49;14.40;;;7.30;;
33696;SDS011;20031;43.416;23.232;2022-10-22T00:56:19;18.77;;;7.38;;
33696;SDS011;20031;43.416;23.232;2022-10-22T00:58:48;17.20;;;8.23;;
33696;SDS011;20031;43.416;23.232;2022-10-22T01:01:20;14.95;;;7.72;;
33696;SDS011;20031;43.416;23.232;2022-10-22T01:03:49;14.73;;;7.45;;
33696;SDS011;20031;43.416;23.232;2022-10-22T01:06:18;11.88;;;6.88;;
33696;SDS011;20031;43.416;23.232;2022-10-22T01:17:27;13.07;;;6.78;;
33696;SDS011;20031;43.416;23.232;2022-10-22T01:25:56;11.13;;;6.85;;
33696;SDS011;20031;43.416;23.232;2022-10-22T01:31:11;12.10;;;6.70;;
33696;SDS011;20031;43.416;23.232;2022-10-22T01:33:39;16.10;;;6.85;;
33696;SDS011;20031;43.416;23.232;2022-10-22T01:36:08;13.05;;;7.40;;
33696;SDS011;20031;43.416;23.232;2022-10-22T01:38:35;15.68;;;7.50;;
33696;SDS011;20031;43.416;23.232;2022-10-22T01:41:04;16.48;;;7.43;;
33696;SDS011;20031;43.416;23.232;2022-10-22T01:43:30;17.35;;;7.25;;
33696;SDS011;20031;43.416;23.232;2022-10-22T01:45:57;15.05;;;7.20;;
33696;SDS011;20031;43.416;23.232;2022-10-22T01:53:53;12.27;;;7.18;;
33696;SDS011;20031;43.416;23.232;2022-10-22T02:02:02;14.07;;;6.57;;
33696;SDS011;20031;43.416;23.232;2022-10-22T02:04:32;12.45;;;6.88;;
33696;SDS011;20031;43.416;23.232;2022-10-22T02:07:07;12.75;;;6.90;;
33696;SDS011;20031;43.416;23.232;2022-10-22T02:09:38;14.93;;;7.32;;
33696;SDS011;20031;43.416;23.232;2022-10-22T02:12:05;15.50;;;6.97;;
33696;SDS011;20031;43.416;23.232;2022-10-22T02:14:33;13.65;;;6.97;;
33696;SDS011;20031;43.416;23.232;2022-10-22T02:17:02;13.40;;;7.10;;
33696;SDS011;20031;43.416;23.232;2022-10-22T02:19:34;16.17;;;7.75;;
33696;SDS011;20031;43.416;23.232;2022-10-22T02:22:04;14.23;;;7.80;;
33696;SDS011;20031;43.416;23.232;2022-10-22T02:24:29;12.38;;;7.10;;
33696;SDS011;20031;43.416;23.232;2022-10-22T02:30:02;14.43;;;7.78;;
33696;SDS011;20031;43.416;23.232;2022-10-22T02:35:34;12.27;;;7.28;;
33696;SDS011;20031;43.416;23.232;2022-10-22T02:38:01;16.05;;;7.68;;
33696;SDS011;20031;43.416;23.232;2022-10-22T02:40:28;13.77;;;7.10;;
33696;SDS011;20031;43.416;23.232;2022-10-22T02:42:55;13.35;;;7.75;;
33696;SDS011;20031;43.416;23.232;2022-10-22T02:45:20;15.85;;;7.63;;
33696;SDS011;20031;43.416;23.232;2022-10-22T02:47:46;19.23;;;7.45;;
33696;SDS011;20031;43.416;23.232;2022-10-22T02:50:12;11.68;;;6.90;;
33696;SDS011;20031;43.416;23.232;2022-10-22T02:52:38;14.05;;;7.38;;
33696;SDS011;20031;43.416;23.232;2022-10-22T02:55:04;21.05;;;7.43;;
33696;SDS011;20031;43.416;23.232;2022-10-22T02:57:31;18.17;;;7.65;;
33696;SDS011;20031;43.416;23.232;2022-10-22T02:59:57;20.27;;;8.45;;
33696;SDS011;20031;43.416;23.232;2022-10-22T03:02:22;19.90;;;8.10;;
33696;SDS011;20031;43.416;23.232;2022-10-22T03:04:48;22.92;;;8.05;;
33696;SDS011;20031;43.416;23.232;2022-10-22T03:07:13;12.57;;;7.15;;
33696;SDS011;20031;43.416;23.232;2022-10-22T03:09:39;22.27;;;8.10;;
33696;SDS011;20031;43.416;23.232;2022-10-22T03:12:04;18.00;;;7.70;;
33696;SDS011;20031;43.416;23.232;2022-10-22T03:14:30;14.80;;;6.35;;
33696;SDS011;20031;43.416;23.232;2022-10-22T03:16:55;11.82;;;7.10;;
33696;SDS011;20031;43.416;23.232;2022-10-22T03:19:21;14.45;;;6.70;;
33696;SDS011;20031;43.416;23.232;2022-10-22T03:21:48;14.70;;;6.90;;
33696;SDS011;20031;43.416;23.232;2022-10-22T03:24:21;16.48;;;7.00;;
33696;SDS011;20031;43.416;23.232;2022-10-22T03:26:50;16.17;;;6.50;;
33696;SDS011;20031;43.416;23.232;2022-10-22T03:29:17;15.73;;;6.70;;
33696;SDS011;20031;43.416;23.232;2022-10-22T03:31:45;12.05;;;6.63;;
33696;SDS011;20031;43.416;23.232;2022-10-22T03:34:10;14.60;;;6.38;;
33696;SDS011;20031;43.416;23.232;2022-10-22T03:36:37;16.00;;;7.50;;
33696;SDS011;20031;43.416;23.232;2022-10-22T03:39:04;12.63;;;7.00;;
33696;SDS011;20031;43.416;23.232;2022-10-22T03:41:30;15.45;;;7.00;;
33696;SDS011;20031;43.416;23.232;2022-10-22T03:43:56;10.32;;;6.50;;
33696;SDS011;20031;43.416;23.232;2022-10-22T03:46:24;12.75;;;6.22;;
33696;SDS011;20031;43.416;23.232;2022-10-22T03:48:49;12.25;;;6.72;;
33696;SDS011;20031;43.416;23.232;2022-10-22T03:51:15;14.57;;;7.07;;
33696;SDS011;20031;43.416;23.232;2022-10-22T03:53:40;15.00;;;7.10;;
33696;SDS011;20031;43.416;23.232;2022-10-22T03:56:09;12.50;;;6.75;;
33696;SDS011;20031;43.416;23.232;2022-10-22T03:58:36;12.98;;;6.10;;
33696;SDS011;20031;43.416;23.232;2022-10-22T04:01:05;11.13;;;6.75;;
33696;SDS011;20031;43.416;23.232;2022-10-22T04:03:32;12.10;;;6.32;;
33696;SDS011;20031;43.416;23.232;2022-10-22T04:06:02;13.48;;;6.40;;
33696;SDS011;20031;43.416;23.232;2022-10-22T04:08:32;10.98;;;6.53;;
33696;SDS011;20031;43.416;23.232;2022-10-22T04:10:58;18.88;;;7.00;;
33696;SDS011;20031;43.416;23.232;2022-10-22T04:13:23;15.02;;;6.90;;
33696;SDS011;20031;43.416;23.232;2022-10-22T04:15:49;30.25;;;7.43;;
33696;SDS011;20031;43.416;23.232;2022-10-22T04:18:16;15.35;;;6.90;;
33696;SDS011;20031;43.416;23.232;2022-10-22T04:20:46;20.45;;;8.35;;
33696;SDS011;20031;43.416;23.232;2022-10-22T04:23:12;22.38;;;9.88;;
33696;SDS011;20031;43.416;23.232;2022-10-22T04:25:38;26.35;;;10.68;;
33696;SDS011;20031;43.416;23.232;2022-10-22T04:28:06;30.27;;;15.15;;
33696;SDS011;20031;43.416;23.232;2022-10-22T04:30:32;26.50;;;12.75;;
33696;SDS011;20031;43.416;23.232;2022-10-22T04:32:59;21.98;;;10.25;;
33696;SDS011;20031;43.416;23.232;2022-10-22T04:35:24;23.52;;;10.40;;
33696;SDS011;20031;43.416;23.232;2022-10-22T04:37:50;33.45;;;10.68;;
33696;SDS011;20031;43.416;23.232;2022-10-22T04:40:15;36.45;;;12.70;;
33696;SDS011;20031;43.416;23.232;2022-10-22T04:42:41;29.20;;;13.82;;
33696;SDS011;20031;43.416;23.232;2022-10-22T04:45:06;30.98;;;14.82;;
33696;SDS011;20031;43.416;23.232;2022-10-22T04:47:32;27.02;;;13.48;;
33696;SDS011;20031;43.416;23.232;2022-10-22T04:49:57;40.17;;;13.60;;
33696;SDS011;20031;43.416;23.232;2022-10-22T04:52:23;23.33;;;9.85;;
33696;SDS011;20031;43.416;23.232;2022-10-22T04:54:48;28.15;;;8.57;;
33696;SDS011;20031;43.416;23.232;2022-10-22T04:57:14;22.17;;;7.40;;
33696;SDS011;20031;43.416;23.232;2022-10-22T04:59:39;25.67;;;8.32;;
33696;SDS011;20031;43.416;23.232;2022-10-22T05:02:05;21.63;;;8.10;;
33696;SDS011;20031;43.416;23.232;2022-10-22T05:04:30;20.77;;;8.60;;
33696;SDS011;20031;43.416;23.232;2022-10-22T05:06:56;23.10;;;8.85;;
33696;SDS011;20031;43.416;23.232;2022-10-22T05:09:21;27.33;;;9.75;;
33696;SDS011;20031;43.416;23.232;2022-10-22T05:11:48;33.90;;;9.52;;
33696;SDS011;20031;43.416;23.232;2022-10-22T05:14:16;23.13;;;8.35;;
33696;SDS011;20031;43.416;23.232;2022-10-22T05:16:44;19.85;;;8.05;;
33696;SDS011;20031;43.416;23.232;2022-10-22T05:19:14;17.30;;;7.75;;
33696;SDS011;20031;43.416;23.232;2022-10-22T05:21:55;19.92;;;9.50;;
33696;SDS011;20031;43.416;23.232;2022-10-22T05:24:23;27.02;;;10.73;;
33696;SDS011;20031;43.416;23.232;2022-10-22T05:26:49;19.38;;;8.90;;
33696;SDS011;20031;43.416;23.232;2022-10-22T05:29:16;23.20;;;8.98;;
33696;SDS011;20031;43.416;23.232;2022-10-22T05:31:42;20.65;;;10.90;;
33696;SDS011;20031;43.416;23.232;2022-10-22T05:34:07;22.20;;;9.20;;
33696;SDS011;20031;43.416;23.232;2022-10-22T05:36:33;21.67;;;9.65;;
33696;SDS011;20031;43.416;23.232;2022-10-22T05:38:58;24.50;;;9.65;;
33696;SDS011;20031;43.416;23.232;2022-10-22T05:41:24;22.88;;;8.68;;
33696;SDS011;20031;43.416;23.232;2022-10-22T05:43:50;16.83;;;7.50;;
33696;SDS011;20031;43.416;23.232;2022-10-22T05:46:20;21.95;;;7.53;;
33696;SDS011;20031;43.416;23.232;2022-10-22T05:48:50;19.55;;;8.82;;
33696;SDS011;20031;43.416;23.232;2022-10-22T05:51:16;19.73;;;8.15;;
33696;SDS011;20031;43.416;23.232;2022-10-22T05:53:42;21.13;;;8.98;;
33696;SDS011;20031;43.416;23.232;2022-10-22T05:56:10;22.35;;;9.27;;
33696;SDS011;20031;43.416;23.232;2022-10-22T05:58:37;24.67;;;10.07;;
33696;SDS011;20031;43.416;23.232;2022-10-22T06:01:03;26.02;;;11.50;;
33696;SDS011;20031;43.416;23.232;2022-10-22T06:03:30;25.30;;;8.25;;
33696;SDS011;20031;43.416;23.232;2022-10-22T06:05:58;30.60;;;8.15;;
33696;SDS011;20031;43.416;23.232;2022-10-22T06:08:25;38.30;;;9.48;;
33696;SDS011;20031;43.416;23.232;2022-10-22T06:10:50;29.98;;;10.13;;
33696;SDS011;20031;43.416;23.232;2022-10-22T06:13:16;40.05;;;8.07;;
33696;SDS011;20031;43.416;23.232;2022-10-22T06:15:41;33.50;;;8.85;;
33696;SDS011;20031;43.416;23.232;2022-10-22T06:18:07;29.77;;;8.98;;
33696;SDS011;20031;43.416;23.232;2022-10-22T06:20:33;18.77;;;8.38;;
33696;SDS011;20031;43.416;23.232;2022-10-22T06:22:59;19.65;;;6.97;;
33696;SDS011;20031;43.416;23.232;2022-10-22T06:25:24;16.70;;;6.50;;
33696;SDS011;20031;43.416;23.232;2022-10-22T06:27:50;34.05;;;7.43;;
33696;SDS011;20031;43.416;23.232;2022-10-22T06:30:16;33.90;;;7.35;;
33696;SDS011;20031;43.416;23.232;2022-10-22T06:32:41;25.65;;;8.27;;
33696;SDS011;20031;43.416;23.232;2022-10-22T06:35:07;22.55;;;7.40;;
33696;SDS011;20031;43.416;23.232;2022-10-22T06:37:32;19.98;;;6.88;;
33696;SDS011;20031;43.416;23.232;2022-10-22T06:39:58;23.70;;;6.50;;
33696;SDS011;20031;43.416;23.232;2022-10-22T06:42:23;23.60;;;8.32;;
33696;SDS011;20031;43.416;23.232;2022-10-22T06:44:49;21.48;;;6.60;;
33696;SDS011;20031;43.416;23.232;2022-10-22T06:47:14;52.67;;;7.30;;
33696;SDS011;20031;43.416;23.232;2022-10-22T06:49:40;17.20;;;6.80;;
33696;SDS011;20031;43.416;23.232;2022-10-22T06:52:05;25.20;;;6.05;;
33696;SDS011;20031;43.416;23.232;2022-10-22T06:54:30;23.10;;;6.07;;
33696;SDS011;20031;43.416;23.232;2022-10-22T06:56:56;19.90;;;6.20;;
33696;SDS011;20031;43.416;23.232;2022-10-22T06:59:21;17.70;;;5.97;;
33696;SDS011;20031;43.416;23.232;2022-10-22T07:01:47;20.35;;;8.18;;
33696;SDS011;20031;43.416;23.232;2022-10-22T07:04:12;16.55;;;5.75;;
33696;SDS011;20031;43.416;23.232;2022-10-22T07:06:37;16.63;;;5.35;;
33696;SDS011;20031;43.416;23.232;2022-10-22T07:09:03;13.98;;;5.25;;
33696;SDS011;20031;43.416;23.232;2022-10-22T07:11:29;14.40;;;6.35;;
33696;SDS011;20031;43.416;23.232;2022-10-22T07:14:07;13.75;;;6.63;;
33696;SDS011;20031;43.416;23.232;2022-10-22T07:16:32;14.70;;;6.45;;
33696;SDS011;20031;43.416;23.232;2022-10-22T07:18:58;92.18;;;41.60;;
33696;SDS011;20031;43.416;23.232;2022-10-22T07:21:24;49.15;;;27.08;;
33696;SDS011;20031;43.416;23.232;2022-10-22T07:23:50;29.95;;;19.27;;
33696;SDS011;20031;43.416;23.232;2022-10-22T07:26:16;23.70;;;8.20;;
33696;SDS011;20031;43.416;23.232;2022-10-22T07:28:42;18.52;;;7.47;;
33696;SDS011;20031;43.416;23.232;2022-10-22T07:31:08;13.52;;;7.25;;
33696;SDS011;20031;43.416;23.232;2022-10-22T07:33:35;17.83;;;6.90;;
33696;SDS011;20031;43.416;23.232;2022-10-22T07:36:02;14.70;;;6.88;;
33696;SDS011;20031;43.416;23.232;2022-10-22T07:38:30;12.73;;;7.75;;
33696;SDS011;20031;43.416;23.232;2022-10-22T07:40:55;15.98;;;7.18;;
33696;SDS011;20031;43.416;23.232;2022-10-22T07:43:21;18.98;;;7.00;;
33696;SDS011;20031;43.416;23.232;2022-10-22T07:45:46;18.95;;;7.05;;
33696;SDS011;20031;43.416;23.232;2022-10-22T07:48:12;23.83;;;6.95;;
33696;SDS011;20031;43.416;23.232;2022-10-22T07:50:37;12.85;;;6.57;;
33696;SDS011;20031;43.416;23.232;2022-10-22T07:53:03;20.02;;;8.05;;
33696;SDS011;20031;43.416;23.232;2022-10-22T07:55:28;16.92;;;6.85;;
33696;SDS011;20031;43.416;23.232;2022-10-22T07:57:54;15.40;;;6.43;;
33696;SDS011;20031;43.416;23.232;2022-10-22T08:00:19;26.02;;;7.35;;
33696;SDS011;20031;43.416;23.232;2022-10-22T08:02:45;15.25;;;6.78;;
33696;SDS011;20031;43.416;23.232;2022-10-22T08:05:11;16.85;;;6.97;;
33696;SDS011;20031;43.416;23.232;2022-10-22T08:07:37;18.15;;;6.65;;
33696;SDS011;20031;43.416;23.232;2022-10-22T08:10:03;17.42;;;6.78;;
33696;SDS011;20031;43.416;23.232;2022-10-22T08:12:29;17.63;;;7.18;;
33696;SDS011;20031;43.416;23.232;2022-10-22T08:14:55;14.75;;;7.25;;
33696;SDS011;20031;43.416;23.232;2022-10-22T08:17:20;13.85;;;6.82;;
33696;SDS011;20031;43.416;23.232;2022-10-22T08:19:46;16.92;;;7.32;;
33696;SDS011;20031;43.416;23.232;2022-10-22T08:22:11;15.75;;;7.18;;
33696;SDS011;20031;43.416;23.232;2022-10-22T08:24:37;16.83;;;7.28;;
33696;SDS011;20031;43.416;23.232;2022-10-22T08:27:02;20.17;;;6.72;;
33696;SDS011;20031;43.416;23.232;2022-10-22T08:29:27;18.83;;;7.30;;
33696;SDS011;20031;43.416;23.232;2022-10-22T08:31:53;14.55;;;7.45;;
33696;SDS011;20031;43.416;23.232;2022-10-22T08:34:18;17.20;;;7.00;;
33696;SDS011;20031;43.416;23.232;2022-10-22T08:36:45;15.38;;;6.20;;
33696;SDS011;20031;43.416;23.232;2022-10-22T08:39:10;16.85;;;6.78;;
33696;SDS011;20031;43.416;23.232;2022-10-22T08:41:58;14.20;;;6.57;;
33696;SDS011;20031;43.416;23.232;2022-10-22T08:48:09;15.95;;;5.68;;
33696;SDS011;20031;43.416;23.232;2022-10-22T08:50:52;22.63;;;5.47;;
33696;SDS011;20031;43.416;23.232;2022-10-22T08:53:31;18.33;;;5.85;;
33696;SDS011;20031;43.416;23.232;2022-10-22T08:56:03;16.50;;;5.85;;
33696;SDS011;20031;43.416;23.232;2022-10-22T09:01:14;14.25;;;5.10;;
33696;SDS011;20031;43.416;23.232;2022-10-22T09:06:30;16.85;;;4.97;;
33696;SDS011;20031;43.416;23.232;2022-10-22T09:08:58;19.70;;;4.80;;
33696;SDS011;20031;43.416;23.232;2022-10-22T09:11:32;13.27;;;5.63;;
33696;SDS011;20031;43.416;23.232;2022-10-22T09:14:00;17.35;;;5.10;;
33696;SDS011;20031;43.416;23.232;2022-10-22T09:19:08;18.77;;;5.05;;
33696;SDS011;20031;43.416;23.232;2022-10-22T09:21:52;13.48;;;4.80;;
33696;SDS011;20031;43.416;23.232;2022-10-22T09:27:12;13.18;;;4.60;;
33696;SDS011;20031;43.416;23.232;2022-10-22T09:29:41;12.80;;;5.18;;
33696;SDS011;20031;43.416;23.232;2022-10-22T09:32:07;12.38;;;4.68;;
33696;SDS011;20031;43.416;23.232;2022-10-22T09:34:33;16.00;;;4.95;;
33696;SDS011;20031;43.416;23.232;2022-10-22T09:36:59;12.98;;;5.38;;
33696;SDS011;20031;43.416;23.232;2022-10-22T09:39:27;14.32;;;4.85;;
33696;SDS011;20031;43.416;23.232;2022-10-22T09:41:57;19.60;;;5.50;;
33696;SDS011;20031;43.416;23.232;2022-10-22T09:44:23;12.60;;;5.05;;
33696;SDS011;20031;43.416;23.232;2022-10-22T09:46:48;13.98;;;5.13;;
33696;SDS011;20031;43.416;23.232;2022-10-22T09:49:15;17.60;;;5.38;;
33696;SDS011;20031;43.416;23.232;2022-10-22T09:51:56;22.88;;;5.43;;
33696;SDS011;20031;43.416;23.232;2022-10-22T09:59:30;18.77;;;5.35;;
33696;SDS011;20031;43.416;23.232;2022-10-22T10:02:18;20.15;;;5.30;;
33696;SDS011;20031;43.416;23.232;2022-10-22T10:04:46;15.98;;;5.70;;
33696;SDS011;20031;43.416;23.232;2022-10-22T10:07:16;10.23;;;5.10;;
33696;SDS011;20031;43.416;23.232;2022-10-22T10:09:54;19.50;;;5.63;;
33696;SDS011;20031;43.416;23.232;2022-10-22T10:15:35;19.58;;;6.30;;
33696;SDS011;20031;43.416;23.232;2022-10-22T10:18:16;18.70;;;6.60;;
33696;SDS011;20031;43.416;23.232;2022-10-22T10:36:16;22.25;;;5.30;;
33696;SDS011;20031;43.416;23.232;2022-10-22T10:38:57;19.92;;;6.07;;
33696;SDS011;20031;43.416;23.232;2022-10-22T10:41:30;16.63;;;5.45;;
33696;SDS011;20031;43.416;23.232;2022-10-22T10:44:39;17.35;;;5.72;;
33696;SDS011;20031;43.416;23.232;2022-10-22T10:47:40;20.02;;;6.50;;
33696;SDS011;20031;43.416;23.232;2022-10-22T11:04:12;22.88;;;5.90;;
33696;SDS011;20031;43.416;23.232;2022-10-22T11:06:44;13.35;;;6.03;;
33696;SDS011;20031;43.416;23.232;2022-10-22T11:09:21;18.55;;;5.80;;
33696;SDS011;20031;43.416;23.232;2022-10-22T11:17:00;19.08;;;6.47;;
33696;SDS011;20031;43.416;23.232;2022-10-22T11:20:03;24.35;;;6.43;;
33696;SDS011;20031;43.416;23.232;2022-10-22T11:25:22;13.70;;;6.28;;
33696;SDS011;20031;43.416;23.232;2022-10-22T11:28:00;16.30;;;6.15;;
33696;SDS011;20031;43.416;23.232;2022-10-22T11:30:33;16.10;;;5.97;;
33696;SDS011;20031;43.416;23.232;2022-10-22T11:33:02;14.18;;;5.97;;
33696;SDS011;20031;43.416;23.232;2022-10-22T11:35:34;18.15;;;5.90;;
33696;SDS011;20031;43.416;23.232;2022-10-22T11:38:04;14.80;;;6.07;;
33696;SDS011;20031;43.416;23.232;2022-10-22T11:40:32;21.13;;;6.30;;
33696;SDS011;20031;43.416;23.232;2022-10-22T12:01:24;21.80;;;6.32;;
33696;SDS011;20031;43.416;23.232;2022-10-22T12:04:19;13.80;;;6.35;;
33696;SDS011;20031;43.416;23.232;2022-10-22T12:06:50;21.48;;;7.07;;
33696;SDS011;20031;43.416;23.232;2022-10-22T12:09:17;23.80;;;6.75;;
33696;SDS011;20031;43.416;23.232;2022-10-22T12:11:44;16.15;;;6.68;;
33696;SDS011;20031;43.416;23.232;2022-10-22T12:14:21;16.58;;;6.53;;
33696;SDS011;20031;43.416;23.232;2022-10-22T12:21:48;29.13;;;6.90;;
33696;SDS011;20031;43.416;23.232;2022-10-22T12:24:19;18.35;;;6.50;;
33696;SDS011;20031;43.416;23.232;2022-10-22T12:26:47;16.20;;;6.65;;
33696;SDS011;20031;43.416;23.232;2022-10-22T12:29:16;21.90;;;6.40;;
33696;SDS011;20031;43.416;23.232;2022-10-22T12:31:44;21.75;;;6.63;;
33696;SDS011;20031;43.416;23.232;2022-10-22T12:34:19;19.45;;;5.85;;
33696;SDS011;20031;43.416;23.232;2022-10-22T12:36:47;19.70;;;6.22;;
33696;SDS011;20031;43.416;23.232;2022-10-22T12:39:15;20.05;;;5.95;;
33696;SDS011;20031;43.416;23.232;2022-10-22T12:41:45;15.30;;;5.95;;
33696;SDS011;20031;43.416;23.232;2022-10-22T12:44:13;16.15;;;5.75;;
33696;SDS011;20031;43.416;23.232;2022-10-22T12:46:41;12.85;;;5.78;;
33696;SDS011;20031;43.416;23.232;2022-10-22T12:49:31;23.17;;;5.72;;
33696;SDS011;20031;43.416;23.232;2022-10-22T12:52:05;20.52;;;6.05;;
33696;SDS011;20031;43.416;23.232;2022-10-22T12:54:35;18.52;;;6.13;;
33696;SDS011;20031;43.416;23.232;2022-10-22T12:57:02;20.60;;;5.93;;
33696;SDS011;20031;43.416;23.232;2022-10-22T12:59:28;13.80;;;5.60;;
33696;SDS011;20031;43.416;23.232;2022-10-22T13:01:59;19.92;;;5.93;;
33696;SDS011;20031;43.416;23.232;2022-10-22T13:09:46;17.42;;;6.00;;
33696;SDS011;20031;43.416;23.232;2022-10-22T13:12:25;17.33;;;6.87;;
33696;SDS011;20031;43.416;23.232;2022-10-22T13:14:52;20.15;;;6.03;;
33696;SDS011;20031;43.416;23.232;2022-10-22T13:17:19;15.90;;;6.22;;
33696;SDS011;20031;43.416;23.232;2022-10-22T13:20:02;12.60;;;5.43;;
33696;SDS011;20031;43.416;23.232;2022-10-22T13:22:33;19.20;;;5.63;;
33696;SDS011;20031;43.416;23.232;2022-10-22T13:25:17;13.50;;;6.03;;
33696;SDS011;20031;43.416;23.232;2022-10-22T13:27:46;14.73;;;5.85;;
33696;SDS011;20031;43.416;23.232;2022-10-22T13:30:18;24.48;;;7.00;;
33696;SDS011;20031;43.416;23.232;2022-10-22T13:32:48;22.52;;;5.95;;
33696;SDS011;20031;43.416;23.232;2022-10-22T13:35:19;15.85;;;5.82;;
33696;SDS011;20031;43.416;23.232;2022-10-22T13:37:48;14.38;;;5.75;;
33696;SDS011;20031;43.416;23.232;2022-10-22T13:40:13;14.25;;;6.45;;
33696;SDS011;20031;43.416;23.232;2022-10-22T13:42:39;25.25;;;7.10;;
33696;SDS011;20031;43.416;23.232;2022-10-22T13:45:05;21.45;;;7.60;;
33696;SDS011;20031;43.416;23.232;2022-10-22T13:47:30;16.13;;;6.95;;
33696;SDS011;20031;43.416;23.232;2022-10-22T13:49:57;17.85;;;7.55;;
33696;SDS011;20031;43.416;23.232;2022-10-22T13:52:39;18.80;;;7.03;;
33696;SDS011;20031;43.416;23.232;2022-10-22T13:57:44;26.17;;;7.90;;
33696;SDS011;20031;43.416;23.232;2022-10-22T14:00:17;19.40;;;7.30;;
33696;SDS011;20031;43.416;23.232;2022-10-22T14:02:45;24.92;;;7.00;;
33696;SDS011;20031;43.416;23.232;2022-10-22T14:05:13;11.80;;;6.80;;
33696;SDS011;20031;43.416;23.232;2022-10-22T14:07:39;16.05;;;7.20;;
33696;SDS011;20031;43.416;23.232;2022-10-22T14:10:12;18.52;;;7.57;;
33696;SDS011;20031;43.416;23.232;2022-10-22T14:12:42;20.98;;;7.25;;
33696;SDS011;20031;43.416;23.232;2022-10-22T14:15:11;18.88;;;7.50;;
33696;SDS011;20031;43.416;23.232;2022-10-22T14:17:39;18.95;;;6.85;;
33696;SDS011;20031;43.416;23.232;2022-10-22T14:20:09;19.50;;;6.68;;
33696;SDS011;20031;43.416;23.232;2022-10-22T14:22:39;20.88;;;6.68;;
33696;SDS011;20031;43.416;23.232;2022-10-22T14:25:05;20.75;;;6.95;;
33696;SDS011;20031;43.416;23.232;2022-10-22T14:27:30;16.25;;;6.20;;
33696;SDS011;20031;43.416;23.232;2022-10-22T14:29:56;19.92;;;6.13;;
33696;SDS011;20031;43.416;23.232;2022-10-22T14:32:21;19.58;;;6.25;;
33696;SDS011;20031;43.416;23.232;2022-10-22T14:34:47;21.92;;;6.95;;
33696;SDS011;20031;43.416;23.232;2022-10-22T14:37:17;26.75;;;6.53;;
33696;SDS011;20031;43.416;23.232;2022-10-22T14:39:44;23.58;;;6.70;;
33696;SDS011;20031;43.416;23.232;2022-10-22T14:42:17;32.92;;;7.03;;
33696;SDS011;20031;43.416;23.232;2022-10-22T14:44:43;28.88;;;6.35;;
33696;SDS011;20031;43.416;23.232;2022-10-22T14:47:10;28.70;;;6.65;;
33696;SDS011;20031;43.416;23.232;2022-10-22T14:49:35;24.33;;;7.05;;
33696;SDS011;20031;43.416;23.232;2022-10-22T14:52:01;25.52;;;6.97;;
33696;SDS011;20031;43.416;23.232;2022-10-22T14:54:26;27.20;;;7.32;;
33696;SDS011;20031;43.416;23.232;2022-10-22T14:56:52;20.50;;;7.28;;
33696;SDS011;20031;43.416;23.232;2022-10-22T14:59:17;26.17;;;6.70;;
33696;SDS011;20031;43.416;23.232;2022-10-22T15:01:43;15.85;;;6.53;;
33696;SDS011;20031;43.416;23.232;2022-10-22T15:04:08;22.98;;;7.15;;
33696;SDS011;20031;43.416;23.232;2022-10-22T15:06:34;29.20;;;7.10;;
33696;SDS011;20031;43.416;23.232;2022-10-22T15:09:00;19.05;;;6.70;;
33696;SDS011;20031;43.416;23.232;2022-10-22T15:11:25;23.30;;;7.38;;
33696;SDS011;20031;43.416;23.232;2022-10-22T15:13:51;18.77;;;7.03;;
33696;SDS011;20031;43.416;23.232;2022-10-22T15:16:16;24.90;;;7.38;;
33696;SDS011;20031;43.416;23.232;2022-10-22T15:18:42;22.73;;;7.40;;
33696;SDS011;20031;43.416;23.232;2022-10-22T15:21:13;21.60;;;9.95;;
33696;SDS011;20031;43.416;23.232;2022-10-22T15:23:40;37.22;;;12.68;;
33696;SDS011;20031;43.416;23.232;2022-10-22T15:26:09;45.65;;;17.40;;
33696;SDS011;20031;43.416;23.232;2022-10-22T15:28:36;63.55;;;21.65;;
33696;SDS011;20031;43.416;23.232;2022-10-22T15:31:03;73.60;;;18.33;;
33696;SDS011;20031;43.416;23.232;2022-10-22T15:33:29;39.30;;;16.10;;
33696;SDS011;20031;43.416;23.232;2022-10-22T15:35:55;47.80;;;16.27;;
33696;SDS011;20031;43.416;23.232;2022-10-22T15:38:25;50.40;;;18.23;;
33696;SDS011;20031;43.416;23.232;2022-10-22T15:41:03;48.45;;;18.23;;
33696;SDS011;20031;43.416;23.232;2022-10-22T15:43:30;55.38;;;16.98;;
33696;SDS011;20031;43.416;23.232;2022-10-22T15:46:07;54.78;;;19.35;;
33696;SDS011;20031;43.416;23.232;2022-10-22T15:48:40;71.40;;;21.08;;
33696;SDS011;20031;43.416;23.232;2022-10-22T15:51:07;78.82;;;21.33;;
33696;SDS011;20031;43.416;23.232;2022-10-22T15:53:34;60.17;;;17.98;;
33696;SDS011;20031;43.416;23.232;2022-10-22T15:55:59;49.08;;;15.15;;
33696;SDS011;20031;43.416;23.232;2022-10-22T15:58:24;46.72;;;15.32;;
33696;SDS011;20031;43.416;23.232;2022-10-22T16:00:50;46.03;;;14.32;;
33696;SDS011;20031;43.416;23.232;2022-10-22T16:03:15;70.55;;;18.02;;
33696;SDS011;20031;43.416;23.232;2022-10-22T16:05:48;54.85;;;17.10;;
33696;SDS011;20031;43.416;23.232;2022-10-22T16:08:15;98.93;;;45.22;;
33696;SDS011;20031;43.416;23.232;2022-10-22T16:10:43;64.93;;;20.20;;
33696;SDS011;20031;43.416;23.232;2022-10-22T16:13:09;64.80;;;22.90;;
33696;SDS011;20031;43.416;23.232;2022-10-22T16:15:35;64.85;;;23.45;;
33696;SDS011;20031;43.416;23.232;2022-10-22T16:18:00;99.20;;;42.20;;
33696;SDS011;20031;43.416;23.232;2022-10-22T16:20:26;106.38;;;40.75;;
33696;SDS011;20031;43.416;23.232;2022-10-22T16:22:51;95.38;;;39.58;;
33696;SDS011;20031;43.416;23.232;2022-10-22T16:25:17;98.18;;;41.08;;
33696;SDS011;20031;43.416;23.232;2022-10-22T16:27:42;86.78;;;40.30;;
33696;SDS011;20031;43.416;23.232;2022-10-22T16:30:07;75.35;;;32.92;;
33696;SDS011;20031;43.416;23.232;2022-10-22T16:32:33;71.10;;;30.05;;